Time;durP1;ratioP1;P1;durP2;ratioP2;P2;SDS_P1;SDS_P2;PMS_P1;PMS_P2;Temp;Humidity;BMP_temperature;BMP_pressure;BME280_temperature;BME280_humidity;BME280_pressure;Samples;Min_cycle;Max_cycle;Signal;HPM_P1;HPM_P2
2024/02/03 00:02:18;;;;;;;13.77;5.90;;;2.70;99.90;;;;;;5062327;28;21283;-69
2024/02/03 00:04:46;;;;;;;12.23;5.30;;;2.70;99.90;;;;;;5063415;28;20504;-69
2024/02/03 00:07:14;;;;;;;14.80;4.93;;;2.70;99.90;;;;;;5059387;28;20443;-69
2024/02/03 00:09:42;;;;;;;14.53;5.27;;;2.60;99.90;;;;;;5061704;28;20516;-70
2024/02/03 00:12:11;;;;;;;13.00;5.37;;;2.50;99.90;;;;;;5061316;28;20455;-69
2024/02/03 00:14:40;;;;;;;12.03;4.77;;;2.40;99.90;;;;;;5060232;28;20479;-68
2024/02/03 00:17:09;;;;;;;10.77;5.30;;;2.50;99.90;;;;;;5059740;28;20596;-69
2024/02/03 00:19:39;;;;;;;11.90;6.20;;;2.50;99.90;;;;;;5062298;28;20470;-68
2024/02/03 00:22:07;;;;;;;12.93;5.57;;;2.50;99.90;;;;;;5058087;28;20457;-70
2024/02/03 00:24:35;;;;;;;11.50;5.03;;;2.40;99.90;;;;;;5060014;28;20450;-69
2024/02/03 00:27:05;;;;;;;13.17;5.90;;;2.40;99.90;;;;;;5061011;28;20497;-69
2024/02/03 00:29:34;;;;;;;12.50;5.73;;;2.40;99.90;;;;;;5056313;28;20494;-69
2024/02/03 00:32:02;;;;;;;14.77;5.77;;;2.40;99.90;;;;;;5059835;28;20446;-68
2024/02/03 00:34:30;;;;;;;12.80;5.30;;;2.30;99.90;;;;;;5054523;28;20973;-70
2024/02/03 00:37:01;;;;;;;13.57;5.70;;;2.30;99.90;;;;;;5060685;28;20499;-69
2024/02/03 00:39:29;;;;;;;15.80;6.20;;;2.30;99.90;;;;;;5061337;28;20473;-70
2024/02/03 00:41:57;;;;;;;12.07;5.03;;;2.20;99.90;;;;;;5060863;28;20213;-69
2024/02/03 00:44:25;;;;;;;13.20;5.90;;;2.20;99.90;;;;;;5060025;28;20238;-68
2024/02/03 00:46:53;;;;;;;11.03;5.03;;;2.20;99.90;;;;;;5061436;28;20441;-70
2024/02/03 00:49:21;;;;;;;15.20;6.23;;;2.10;99.90;;;;;;5060654;28;20520;-69
2024/02/03 00:51:49;;;;;;;16.73;5.40;;;2.10;99.90;;;;;;5060544;28;20533;-69
2024/02/03 00:54:19;;;;;;;13.50;4.97;;;2.10;99.90;;;;;;5061269;28;20463;-70
2024/02/03 00:56:47;;;;;;;11.30;3.97;;;2.10;99.90;;;;;;5058452;28;20557;-69
2024/02/03 00:59:15;;;;;;;12.07;4.97;;;2.00;99.90;;;;;;5061634;28;20442;-69
2024/02/03 01:01:43;;;;;;;12.27;4.90;;;2.00;99.90;;;;;;5060461;28;21178;-68
2024/02/03 01:04:12;;;;;;;11.77;4.50;;;2.00;99.90;;;;;;5061314;28;20479;-69
2024/02/03 01:06:40;;;;;;;12.30;4.87;;;1.90;99.90;;;;;;5062481;28;20457;-69
2024/02/03 01:09:08;;;;;;;11.10;4.43;;;1.90;99.90;;;;;;5060284;28;21282;-69
2024/02/03 01:11:38;;;;;;;10.70;4.60;;;1.80;99.90;;;;;;5061718;28;21270;-69
2024/02/03 01:14:06;;;;;;;11.00;4.87;;;1.70;99.90;;;;;;5062167;28;20484;-70
2024/02/03 01:16:35;;;;;;;15.60;5.13;;;1.70;99.90;;;;;;5058529;28;20487;-69
2024/02/03 01:19:03;;;;;;;12.40;5.33;;;1.70;99.90;;;;;;5063805;28;20516;-69
2024/02/03 01:21:31;;;;;;;13.60;4.23;;;1.70;99.90;;;;;;5063035;28;20557;-67
2024/02/03 01:23:59;;;;;;;10.87;4.77;;;1.70;99.90;;;;;;5064202;28;20462;-69
2024/02/03 01:26:29;;;;;;;11.73;4.87;;;1.70;99.90;;;;;;5065719;28;20497;-71
2024/02/03 01:28:58;;;;;;;11.13;5.03;;;1.70;99.90;;;;;;5066597;28;20460;-70
2024/02/03 01:31:26;;;;;;;15.07;4.63;;;1.70;99.90;;;;;;5068221;28;20260;-70
2024/02/03 01:33:58;;;;;;;11.95;4.57;;;1.70;99.90;;;;;;5068353;28;20215;-70
2024/02/03 01:36:27;;;;;;;12.50;4.73;;;1.60;99.90;;;;;;5067681;28;20218;-70
2024/02/03 01:38:55;;;;;;;10.43;4.43;;;1.50;99.90;;;;;;5068676;28;20450;-69
2024/02/03 01:41:23;;;;;;;10.70;4.47;;;1.50;99.90;;;;;;5067235;28;20831;-69
2024/02/03 01:43:51;;;;;;;11.73;4.77;;;1.50;99.90;;;;;;5067306;28;20529;-70
2024/02/03 01:46:20;;;;;;;15.93;4.63;;;1.60;99.90;;;;;;5067814;28;20970;-69
2024/02/03 01:48:49;;;;;;;11.82;4.32;;;1.60;99.90;;;;;;5069963;28;20264;-69
2024/02/03 01:51:19;;;;;;;11.27;4.70;;;1.60;99.90;;;;;;5067325;28;20236;-70
2024/02/03 01:53:47;;;;;;;11.40;4.90;;;1.50;99.90;;;;;;5066067;28;20516;-69
2024/02/03 01:56:18;;;;;;;12.20;4.43;;;1.60;99.90;;;;;;5068361;28;20484;-69
2024/02/03 01:58:47;;;;;;;9.45;4.20;;;1.50;99.90;;;;;;5068859;28;20276;-70
2024/02/03 02:01:16;;;;;;;9.82;4.20;;;1.50;99.90;;;;;;5068065;28;20268;-69
2024/02/03 02:03:46;;;;;;;10.52;4.05;;;1.50;99.90;;;;;;5067588;28;20231;-69
2024/02/03 02:06:14;;;;;;;11.53;4.80;;;1.50;99.90;;;;;;5068099;28;20216;-70
2024/02/03 02:08:42;;;;;;;11.13;4.63;;;1.40;99.90;;;;;;5067925;28;20441;-69
2024/02/03 02:11:12;;;;;;;15.00;4.60;;;1.50;99.90;;;;;;5067429;28;20296;-69
2024/02/03 02:13:40;;;;;;;13.83;5.13;;;1.50;99.90;;;;;;5066739;28;20206;-69
2024/02/03 02:16:08;;;;;;;14.43;5.20;;;1.50;99.90;;;;;;5070815;28;21224;-70
2024/02/03 02:18:37;;;;;;;11.02;4.35;;;1.50;99.90;;;;;;5072190;28;20274;-70
2024/02/03 02:21:07;;;;;;;11.80;4.63;;;1.40;99.90;;;;;;5072783;28;20228;-69
2024/02/03 02:23:35;;;;;;;11.23;4.45;;;1.40;99.90;;;;;;5081938;28;20446;-70
2024/02/03 02:26:03;;;;;;;10.48;4.20;;;1.40;99.90;;;;;;5087940;28;20292;-69
2024/02/03 02:28:32;;;;;;;11.75;5.13;;;1.40;99.90;;;;;;5084408;28;20280;-69
2024/02/03 02:31:00;;;;;;;12.63;4.33;;;1.30;99.90;;;;;;5090529;28;20237;-69
2024/02/03 02:33:28;;;;;;;13.07;4.35;;;1.30;99.90;;;;;;5092268;28;20503;-69
2024/02/03 02:35:56;;;;;;;12.63;4.70;;;1.40;99.90;;;;;;5092737;28;20331;-70
2024/02/03 02:38:26;;;;;;;12.02;5.05;;;1.40;99.90;;;;;;5089030;28;20220;-70
2024/02/03 02:40:53;;;;;;;14.48;5.82;;;1.50;99.90;;;;;;5089341;28;20226;-69
2024/02/03 02:43:22;;;;;;;10.65;3.90;;;1.40;99.90;;;;;;5089707;28;20237;-70
2024/02/03 02:45:50;;;;;;;12.93;4.55;;;1.30;99.90;;;;;;5088769;28;20237;-70
2024/02/03 02:48:18;;;;;;;12.85;4.90;;;1.20;99.90;;;;;;5090157;28;20210;-70
2024/02/03 02:50:46;;;;;;;11.15;4.70;;;1.10;99.90;;;;;;5089579;28;20249;-70
2024/02/03 02:53:18;;;;;;;13.18;4.78;;;1.10;99.90;;;;;;5083770;28;20281;-70
2024/02/03 02:55:48;;;;;;;12.20;4.10;;;1.10;99.90;;;;;;5070888;28;20226;-69
2024/02/03 02:58:20;;;;;;;10.48;4.03;;;1.10;99.90;;;;;;5070108;28;20230;-70
2024/02/03 03:00:48;;;;;;;13.15;4.35;;;1.10;99.90;;;;;;5068863;28;20240;-69
2024/02/03 03:03:17;;;;;;;12.40;4.90;;;1.20;99.90;;;;;;5068292;28;20255;-70
2024/02/03 03:05:45;;;;;;;11.82;4.63;;;1.40;99.90;;;;;;5069953;28;20201;-70
2024/02/03 03:08:13;;;;;;;10.48;4.18;;;1.30;99.90;;;;;;5067599;28;20212;-70
2024/02/03 03:10:41;;;;;;;11.73;4.55;;;1.30;99.90;;;;;;5068730;28;20300;-69
2024/02/03 03:13:10;;;;;;;10.13;4.00;;;1.40;99.90;;;;;;5067735;28;20264;-70
2024/02/03 03:15:39;;;;;;;10.63;3.88;;;1.30;99.90;;;;;;5068701;28;20259;-70
2024/02/03 03:18:07;;;;;;;11.32;3.97;;;1.30;99.90;;;;;;5068250;28;20214;-69
2024/02/03 03:20:35;;;;;;;11.05;3.45;;;1.30;99.90;;;;;;5067784;28;20600;-69
2024/02/03 03:23:04;;;;;;;10.52;3.20;;;1.30;99.90;;;;;;5067399;28;20453;-69
2024/02/03 03:25:31;;;;;;;9.77;3.72;;;1.30;99.90;;;;;;5067271;28;20273;-69
2024/02/03 03:27:59;;;;;;;9.27;3.42;;;1.30;99.90;;;;;;5067515;28;20211;-69
2024/02/03 03:30:29;;;;;;;9.85;3.50;;;1.10;99.90;;;;;;5065841;28;20283;-70
2024/02/03 03:32:57;;;;;;;11.18;4.25;;;1.00;99.90;;;;;;5065984;28;20208;-68
2024/02/03 03:35:25;;;;;;;12.45;5.20;;;0.90;99.90;;;;;;5066676;28;20239;-69
2024/02/03 03:37:56;;;;;;;10.25;3.80;;;0.90;99.90;;;;;;5066449;28;20815;-69
2024/02/03 03:40:24;;;;;;;9.50;3.78;;;0.90;99.90;;;;;;5064816;28;20316;-70
2024/02/03 03:42:52;;;;;;;10.45;4.50;;;0.90;99.90;;;;;;5067324;28;20208;-69
2024/02/03 03:45:20;;;;;;;9.85;3.72;;;0.90;99.90;;;;;;5067401;28;20663;-69
2024/02/03 03:47:49;;;;;;;9.70;3.38;;;0.90;99.90;;;;;;5067509;28;20219;-69
2024/02/03 03:50:22;;;;;;;11.27;4.22;;;0.90;99.90;;;;;;5067250;28;20229;-69
2024/02/03 03:52:50;;;;;;;10.27;4.05;;;0.80;99.90;;;;;;5066582;28;20210;-70
2024/02/03 03:55:17;;;;;;;11.90;3.53;;;0.90;99.90;;;;;;5066807;28;20317;-69
2024/02/03 03:57:44;;;;;;;9.20;2.78;;;0.90;99.90;;;;;;5067950;28;20238;-69
2024/02/03 04:00:14;;;;;;;9.75;3.45;;;1.00;99.90;;;;;;5067100;28;20357;-69
2024/02/03 04:02:42;;;;;;;10.63;4.05;;;1.10;99.90;;;;;;5066407;28;20208;-70
2024/02/03 04:05:11;;;;;;;11.48;3.78;;;1.10;99.90;;;;;;5067495;28;20206;-71
2024/02/03 04:07:39;;;;;;;10.68;3.75;;;1.10;99.90;;;;;;5067682;28;20677;-69
2024/02/03 04:10:07;;;;;;;9.05;3.45;;;1.00;99.90;;;;;;5067191;28;21196;-69
2024/02/03 04:12:36;;;;;;;10.20;3.10;;;0.90;99.90;;;;;;5066632;28;20301;-69
2024/02/03 04:15:04;;;;;;;10.70;3.15;;;0.80;99.90;;;;;;5067652;28;20236;-69
2024/02/03 04:17:32;;;;;;;8.55;2.90;;;0.80;99.90;;;;;;5067628;28;20284;-69
2024/02/03 04:20:01;;;;;;;9.45;2.97;;;0.90;99.90;;;;;;5066609;28;20235;-69
2024/02/03 04:22:30;;;;;;;9.27;3.03;;;0.90;99.90;;;;;;5066060;28;20285;-69
2024/02/03 04:24:58;;;;;;;9.57;3.25;;;0.90;99.90;;;;;;5066338;28;20671;-69
2024/02/03 04:27:26;;;;;;;9.45;3.17;;;0.90;99.90;;;;;;5065953;28;20966;-70
2024/02/03 04:29:54;;;;;;;10.18;2.92;;;0.80;99.90;;;;;;5066285;28;20246;-70
2024/02/03 04:32:22;;;;;;;9.20;3.15;;;0.70;99.90;;;;;;5065339;28;20300;-68
2024/02/03 04:34:50;;;;;;;9.05;3.72;;;0.70;99.90;;;;;;5066486;28;20947;-70
2024/02/03 04:37:18;;;;;;;9.45;3.50;;;0.80;99.90;;;;;;5065315;28;20228;-69
2024/02/03 04:39:47;;;;;;;9.85;2.97;;;0.90;99.90;;;;;;5066013;28;20284;-69
2024/02/03 04:42:15;;;;;;;9.20;2.78;;;0.80;99.90;;;;;;5062364;28;20558;-69
2024/02/03 04:44:43;;;;;;;9.07;2.92;;;0.90;99.90;;;;;;5066707;28;20241;-69
2024/02/03 04:47:11;;;;;;;9.75;3.20;;;1.00;99.90;;;;;;5066941;28;20211;-69
2024/02/03 04:49:40;;;;;;;8.85;2.75;;;1.00;99.90;;;;;;5066996;28;20923;-69
2024/02/03 04:52:08;;;;;;;9.55;2.60;;;0.90;99.90;;;;;;5066234;28;20224;-69
2024/02/03 04:54:36;;;;;;;10.60;3.10;;;0.90;99.90;;;;;;5066123;28;20216;-69
2024/02/03 04:57:04;;;;;;;9.05;3.00;;;0.90;99.90;;;;;;5066677;28;20230;-69
2024/02/03 04:59:32;;;;;;;11.23;3.30;;;0.80;99.90;;;;;;5066483;28;20235;-71
2024/02/03 05:02:01;;;;;;;8.98;2.90;;;0.90;99.90;;;;;;5065656;28;20268;-69
2024/02/03 05:04:29;;;;;;;12.20;3.47;;;0.90;99.90;;;;;;5065116;28;20206;-70
2024/02/03 05:06:57;;;;;;;10.43;3.00;;;0.90;99.90;;;;;;5065266;28;20212;-69
2024/02/03 05:09:25;;;;;;;9.05;3.15;;;0.80;99.90;;;;;;5064660;28;20338;-70
2024/02/03 05:11:54;;;;;;;8.35;2.88;;;0.80;99.90;;;;;;5064609;28;20217;-69
2024/02/03 05:14:23;;;;;;;10.82;2.60;;;0.90;99.90;;;;;;5064355;28;20208;-69
2024/02/03 05:16:51;;;;;;;9.85;2.88;;;0.80;99.90;;;;;;5064989;28;20235;-69
2024/02/03 05:19:19;;;;;;;10.75;3.40;;;0.70;99.90;;;;;;5064454;28;20661;-69
2024/02/03 05:21:47;;;;;;;9.68;3.05;;;0.80;99.90;;;;;;5064060;28;20756;-69
2024/02/03 05:24:15;;;;;;;12.38;3.42;;;0.70;99.90;;;;;;5064557;28;20210;-70
2024/02/03 05:26:43;;;;;;;9.05;2.97;;;0.70;99.90;;;;;;5064792;28;20221;-68
2024/02/03 05:29:11;;;;;;;9.75;3.03;;;0.70;99.90;;;;;;5064956;28;20212;-69
2024/02/03 05:31:40;;;;;;;9.35;3.20;;;0.60;99.90;;;;;;5064345;28;20234;-70
2024/02/03 05:34:11;;;;;;;8.70;2.80;;;0.60;99.90;;;;;;5063443;28;20215;-70
2024/02/03 05:36:40;;;;;;;10.02;3.30;;;0.50;99.90;;;;;;5061127;28;20226;-69
2024/02/03 05:39:13;;;;;;;11.18;2.60;;;0.40;99.90;;;;;;5065687;28;20209;-69
2024/02/03 05:41:42;;;;;;;10.80;3.10;;;0.50;99.90;;;;;;5063943;28;20275;-68
2024/02/03 05:44:10;;;;;;;12.00;4.07;;;0.50;99.90;;;;;;5065417;28;20580;-70
2024/02/03 05:46:39;;;;;;;9.23;3.28;;;0.60;99.90;;;;;;5065916;28;20265;-69
2024/02/03 05:49:07;;;;;;;9.68;3.10;;;0.60;99.90;;;;;;5067000;28;20205;-69
2024/02/03 05:51:36;;;;;;;11.18;4.63;;;0.50;99.90;;;;;;5068135;28;20853;-69
2024/02/03 05:54:04;;;;;;;10.50;5.15;;;0.70;99.90;;;;;;5068142;28;20267;-69
2024/02/03 05:56:37;;;;;;;11.00;4.68;;;0.90;99.90;;;;;;5068319;28;20219;-69
2024/02/03 05:59:05;;;;;;;11.60;5.22;;;1.00;99.90;;;;;;5068701;28;20212;-69
2024/02/03 06:01:54;;;;;;;12.82;5.90;;;2.10;99.90;;;;;;5068323;28;20213;-69
2024/02/03 06:04:23;;;;;;;17.95;7.75;;;2.50;99.90;;;;;;5067853;28;20212;-69
2024/02/03 06:06:51;;;;;;;18.40;8.57;;;3.20;99.90;;;;;;5068997;28;20321;-68
2024/02/03 06:09:19;;;;;;;17.03;8.67;;;3.80;99.90;;;;;;5068933;28;21091;-69
2024/02/03 06:11:47;;;;;;;17.63;8.83;;;4.40;99.90;;;;;;5067843;28;20467;-69
2024/02/03 06:14:15;;;;;;;16.93;8.20;;;4.60;99.90;;;;;;5067947;28;20953;-69
2024/02/03 06:16:43;;;;;;;15.53;8.27;;;4.60;99.90;;;;;;5066733;28;20478;-69
2024/02/03 06:19:12;;;;;;;14.10;6.70;;;4.70;99.90;;;;;;5069200;28;20472;-70
2024/02/03 06:21:40;;;;;;;15.67;7.20;;;4.80;99.90;;;;;;5068052;28;21011;-70
2024/02/03 06:24:09;;;;;;;14.77;7.00;;;4.80;99.90;;;;;;5068360;28;20453;-69
2024/02/03 06:26:39;;;;;;;15.23;6.40;;;4.90;99.90;;;;;;5068270;28;20436;-69
2024/02/03 06:29:10;;;;;;;13.10;6.33;;;5.00;99.90;;;;;;5067344;28;20506;-70
2024/02/03 06:31:38;;;;;;;14.87;6.60;;;5.00;99.90;;;;;;5066777;28;20641;-69
2024/02/03 06:34:06;;;;;;;12.10;6.50;;;5.00;99.90;;;;;;5067197;28;21225;-69
2024/02/03 06:36:36;;;;;;;14.03;6.20;;;5.00;99.90;;;;;;5067133;28;20466;-70
2024/02/03 06:39:08;;;;;;;11.90;5.93;;;5.00;99.90;;;;;;5067485;28;20497;-70
2024/02/03 06:41:36;;;;;;;14.23;6.63;;;5.00;99.90;;;;;;5066354;28;20934;-71
2024/02/03 06:44:04;;;;;;;15.90;6.80;;;5.00;99.90;;;;;;5067047;28;20456;-70
2024/02/03 06:46:32;;;;;;;14.10;6.63;;;5.10;99.90;;;;;;5067172;28;20441;-69
2024/02/03 06:49:00;;;;;;;11.73;5.73;;;5.10;99.90;;;;;;5067147;28;20462;-70
2024/02/03 06:51:28;;;;;;;13.20;6.53;;;5.10;99.90;;;;;;5066232;28;20448;-70
2024/02/03 06:53:58;;;;;;;14.20;7.07;;;5.10;99.90;;;;;;5066615;28;20433;-70
2024/02/03 06:56:25;;;;;;;13.30;7.27;;;5.10;99.90;;;;;;5066433;28;20579;-69
2024/02/03 06:58:54;;;;;;;14.07;6.60;;;5.20;99.90;;;;;;5068117;28;20571;-69
2024/02/03 07:01:22;;;;;;;15.67;7.60;;;5.30;99.90;;;;;;5066286;28;21090;-68
2024/02/03 07:03:50;;;;;;;14.00;7.40;;;5.50;99.90;;;;;;5067895;28;21023;-69
2024/02/03 07:06:18;;;;;;;16.20;7.90;;;5.60;99.90;;;;;;5066788;28;20920;-69
2024/02/03 07:08:46;;;;;;;13.97;7.40;;;5.60;99.90;;;;;;5067983;28;20531;-68
2024/02/03 07:11:18;;;;;;;13.07;7.60;;;5.60;99.90;;;;;;5066863;28;20457;-69
2024/02/03 07:13:46;;;;;;;14.67;7.33;;;5.70;99.90;;;;;;5065502;28;20911;-69
2024/02/03 07:16:15;;;;;;;15.30;7.43;;;5.70;99.90;;;;;;5066695;28;20437;-69
2024/02/03 07:18:46;;;;;;;15.97;8.07;;;5.70;99.90;;;;;;5066896;28;20583;-68
2024/02/03 07:21:14;;;;;;;14.10;7.17;;;5.70;99.90;;;;;;5066405;28;20983;-69
2024/02/03 07:23:52;;;;;;;16.10;6.97;;;5.80;99.90;;;;;;5066933;28;20442;-69
2024/02/03 07:26:21;;;;;;;15.80;7.40;;;6.00;99.90;;;;;;5065820;28;20517;-68
2024/02/03 07:28:54;;;;;;;14.80;7.70;;;6.20;99.90;;;;;;5067678;28;20442;-69
2024/02/03 07:31:29;;;;;;;12.70;6.80;;;6.20;99.90;;;;;;5065767;28;20478;-70
2024/02/03 07:33:59;;;;;;;16.33;6.80;;;6.30;99.90;;;;;;5066810;28;20510;-69
2024/02/03 07:36:27;;;;;;;14.13;7.17;;;6.40;99.90;;;;;;5066787;28;20451;-69
2024/02/03 07:39:01;;;;;;;14.77;6.80;;;6.50;99.90;;;;;;5067453;28;21147;-68
2024/02/03 07:41:30;;;;;;;13.17;6.70;;;6.50;99.90;;;;;;5065416;28;20642;-68
2024/02/03 07:44:01;;;;;;;16.47;7.10;;;6.70;99.90;;;;;;5067443;28;20506;-70
2024/02/03 07:46:28;;;;;;;15.50;7.07;;;6.70;99.90;;;;;;5067522;28;20492;-69
2024/02/03 07:48:56;;;;;;;13.07;6.40;;;6.80;99.90;;;;;;5068131;28;20471;-68
2024/02/03 07:51:24;;;;;;;16.70;7.80;;;6.80;99.90;;;;;;5067107;28;20466;-69
2024/02/03 07:53:52;;;;;;;12.90;6.53;;;6.90;99.90;;;;;;5067081;28;20454;-69
2024/02/03 07:56:20;;;;;;;14.67;6.97;;;6.90;99.90;;;;;;5067597;28;20948;-69
2024/02/03 07:58:50;;;;;;;12.10;6.20;;;6.90;99.90;;;;;;5068249;28;20488;-68
2024/02/03 08:01:20;;;;;;;13.47;6.80;;;6.90;99.90;;;;;;5067425;28;20467;-68
2024/02/03 08:03:49;;;;;;;16.50;8.00;;;7.00;99.90;;;;;;5067322;28;20455;-69
2024/02/03 08:06:17;;;;;;;13.03;6.80;;;7.00;99.90;;;;;;5067545;28;20454;-68
2024/02/03 08:08:45;;;;;;;12.77;6.80;;;7.00;99.90;;;;;;5067290;28;20447;-68
2024/02/03 08:11:13;;;;;;;12.93;6.33;;;7.00;99.90;;;;;;5065876;28;20471;-69
2024/02/03 08:13:41;;;;;;;12.07;6.20;;;6.90;99.90;;;;;;5066046;28;20455;-68
2024/02/03 08:16:10;;;;;;;12.73;7.03;;;6.80;99.90;;;;;;5066309;28;20474;-69
2024/02/03 08:18:38;;;;;;;13.50;7.10;;;6.90;99.90;;;;;;5066514;28;20494;-67
2024/02/03 08:21:06;;;;;;;12.47;6.03;;;6.90;99.90;;;;;;5065560;28;20479;-69
2024/02/03 08:23:34;;;;;;;14.83;5.80;;;6.80;99.90;;;;;;5065958;28;20476;-68
2024/02/03 08:26:02;;;;;;;13.07;6.10;;;6.90;99.90;;;;;;5066110;28;20452;-68
2024/02/03 08:28:30;;;;;;;14.53;6.47;;;6.90;99.90;;;;;;5066148;28;20444;-69
2024/02/03 08:30:58;;;;;;;13.53;6.33;;;6.90;99.90;;;;;;5065083;28;21012;-68
2024/02/03 08:33:28;;;;;;;14.60;6.50;;;6.90;99.90;;;;;;5065245;28;20447;-69
2024/02/03 08:35:56;;;;;;;14.07;7.07;;;6.90;99.90;;;;;;5066176;28;20461;-68
2024/02/03 08:38:25;;;;;;;14.60;6.70;;;7.00;99.90;;;;;;5064834;28;20482;-67
2024/02/03 08:40:53;;;;;;;12.90;6.97;;;7.00;99.90;;;;;;5066014;28;20562;-69
2024/02/03 08:43:21;;;;;;;14.67;7.30;;;7.10;99.90;;;;;;5065134;28;21203;-69
2024/02/03 08:45:49;;;;;;;15.27;6.90;;;7.20;99.90;;;;;;5066737;28;21376;-69
2024/02/03 08:48:17;;;;;;;13.63;5.80;;;7.20;99.90;;;;;;5066964;28;20443;-68
2024/02/03 08:50:47;;;;;;;12.13;5.80;;;7.10;99.90;;;;;;5066634;28;20819;-69
2024/02/03 08:53:15;;;;;;;13.37;6.20;;;7.10;99.90;;;;;;5065759;28;21782;-68
2024/02/03 08:55:46;;;;;;;11.77;5.73;;;7.10;99.90;;;;;;5065842;28;20798;-67
2024/02/03 08:58:14;;;;;;;11.07;4.50;;;7.00;99.90;;;;;;5065684;28;20478;-69
2024/02/03 09:00:42;;;;;;;9.37;3.50;;;7.00;99.90;;;;;;5065290;28;20556;-68
2024/02/03 09:03:10;;;;;;;10.47;3.57;;;7.00;99.90;;;;;;5065106;28;20525;-68
2024/02/03 09:05:38;;;;;;;11.37;3.33;;;6.90;99.90;;;;;;5066894;28;20804;-67
2024/02/03 09:08:08;;;;;;;10.70;3.27;;;6.90;99.90;;;;;;5066877;28;20462;-69
2024/02/03 09:10:36;;;;;;;9.97;3.23;;;6.90;99.90;;;;;;5064692;28;20470;-69
2024/02/03 09:13:04;;;;;;;9.97;3.33;;;7.00;99.90;;;;;;5065022;28;20959;-69
2024/02/03 09:15:32;;;;;;;8.93;3.40;;;7.00;99.90;;;;;;5065679;28;20450;-68
2024/02/03 09:18:00;;;;;;;9.27;3.10;;;6.90;99.90;;;;;;5065570;28;20479;-68
2024/02/03 09:20:28;;;;;;;8.80;3.10;;;6.90;99.90;;;;;;5064863;28;20843;-68
2024/02/03 09:22:56;;;;;;;10.27;3.57;;;6.90;99.90;;;;;;5063928;28;20478;-67
2024/02/03 09:25:25;;;;;;;9.03;3.30;;;6.90;99.90;;;;;;5065916;28;20462;-69
2024/02/03 09:27:53;;;;;;;10.33;3.60;;;6.90;99.90;;;;;;5066368;28;20447;-68
2024/02/03 09:30:22;;;;;;;9.57;3.33;;;6.90;99.90;;;;;;5064313;28;20470;-69
2024/02/03 09:32:50;;;;;;;8.80;3.10;;;6.90;99.90;;;;;;5064670;28;20450;-70
2024/02/03 09:35:18;;;;;;;11.20;3.20;;;7.00;99.90;;;;;;5065165;28;21254;-69
2024/02/03 09:37:46;;;;;;;10.73;3.60;;;7.10;99.90;;;;;;5065667;28;21266;-69
2024/02/03 09:40:20;;;;;;;9.60;3.40;;;7.20;99.90;;;;;;5065952;28;20517;-68
2024/02/03 09:42:50;;;;;;;8.60;2.77;;;7.30;99.90;;;;;;5065826;28;20455;-68
2024/02/03 09:45:20;;;;;;;9.20;2.50;;;7.30;99.90;;;;;;5066600;28;20450;-69
2024/02/03 09:47:48;;;;;;;9.07;2.60;;;7.20;99.90;;;;;;5065612;28;20457;-68
2024/02/03 09:50:17;;;;;;;9.10;2.83;;;7.30;99.90;;;;;;5065181;28;21178;-69
2024/02/03 09:52:45;;;;;;;9.33;2.50;;;7.40;99.90;;;;;;5064627;28;20493;-69
2024/02/03 09:55:16;;;;;;;8.00;2.50;;;7.50;99.90;;;;;;5065926;28;20456;-68
2024/02/03 09:57:46;;;;;;;9.60;2.40;;;7.60;99.90;;;;;;5065984;28;20452;-67
2024/02/03 10:00:20;;;;;;;8.13;2.00;;;7.70;99.90;;;;;;5064151;28;20490;-68
2024/02/03 10:02:48;;;;;;;8.10;2.20;;;7.70;99.90;;;;;;5065896;28;20446;-69
2024/02/03 10:05:26;;;;;;;8.30;2.63;;;7.70;99.90;;;;;;5066067;28;20443;-68
2024/02/03 10:08:00;;;;;;;9.20;2.07;;;7.70;99.90;;;;;;5065835;28;20456;-67
2024/02/03 10:10:28;;;;;;;7.90;2.30;;;7.70;99.90;;;;;;5065260;28;20461;-68
2024/02/03 10:13:08;;;;;;;9.73;2.90;;;7.70;99.90;;;;;;5065495;28;20452;-68
2024/02/03 10:15:38;;;;;;;8.10;2.10;;;7.80;99.90;;;;;;5065987;28;20888;-69
2024/02/03 10:18:08;;;;;;;9.57;2.60;;;7.80;99.90;;;;;;5066002;28;20451;-70
2024/02/03 10:20:36;;;;;;;9.97;3.37;;;7.90;99.90;;;;;;5065574;28;20572;-71
2024/02/03 10:23:04;;;;;;;8.97;2.30;;;7.90;99.90;;;;;;5065445;28;20970;-69
2024/02/03 10:25:33;;;;;;;8.87;2.67;;;8.00;99.90;;;;;;5065957;28;20451;-67
2024/02/03 10:28:03;;;;;;;10.27;2.60;;;8.30;99.90;;;;;;5065828;28;20447;-72
2024/02/03 10:30:32;;;;;;;8.00;2.70;;;8.50;99.90;;;;;;5064989;28;20511;-68
2024/02/03 10:33:02;;;;;;;8.80;2.90;;;8.40;99.90;;;;;;5065437;28;20449;-70
2024/02/03 10:35:32;;;;;;;9.07;2.90;;;8.30;99.90;;;;;;5065838;28;20447;-69
2024/02/03 10:38:00;;;;;;;9.10;3.10;;;8.50;99.90;;;;;;5068224;28;20481;-69
2024/02/03 10:40:29;;;;;;;9.13;3.33;;;8.60;99.90;;;;;;5067594;28;20490;-69
2024/02/03 10:42:58;;;;;;;8.90;2.77;;;8.80;99.90;;;;;;5068111;28;20498;-69
2024/02/03 10:45:31;;;;;;;8.03;2.10;;;9.40;99.90;;;;;;5066885;28;20527;-70
2024/02/03 10:48:02;;;;;;;9.30;3.20;;;10.30;99.90;;;;;;5065097;28;20448;-69
2024/02/03 10:50:35;;;;;;;8.20;2.57;;;10.80;99.90;;;;;;5067243;28;20465;-69
2024/02/03 10:53:06;;;;;;;7.97;2.33;;;11.30;99.90;;;;;;5065144;28;20964;-68
2024/02/03 10:55:38;;;;;;;9.17;2.90;;;11.50;99.90;;;;;;5067220;28;21610;-69
2024/02/03 10:58:07;;;;;;;8.50;2.77;;;11.20;99.90;;;;;;5068151;28;20437;-70
2024/02/03 11:00:35;;;;;;;9.20;3.27;;;10.90;99.90;;;;;;5067390;28;20486;-70
2024/02/03 11:03:05;;;;;;;8.83;3.13;;;11.10;99.90;;;;;;5065485;28;20956;-69
2024/02/03 11:05:34;;;;;;;8.93;2.87;;;11.70;99.90;;;;;;5061711;28;20491;-69
2024/02/03 11:08:07;;;;;;;8.20;2.77;;;12.70;99.90;;;;;;5068345;28;20800;-68
2024/02/03 11:10:37;;;;;;;9.23;3.47;;;13.20;99.90;;;;;;5066030;28;20462;-69
2024/02/03 11:13:21;;;;;;;8.13;2.93;;;12.90;99.90;;;;;;5064233;28;20885;-68
2024/02/03 11:15:56;;;;;;;8.13;2.70;;;12.50;99.90;;;;;;5068342;28;20739;-70
2024/02/03 11:18:26;;;;;;;8.67;2.97;;;11.90;99.90;;;;;;5067694;28;20444;-68
2024/02/03 11:21:04;;;;;;;7.87;2.20;;;11.30;99.90;;;;;;5066915;28;20499;-69
2024/02/03 11:23:33;;;;;;;7.83;2.27;;;10.90;99.90;;;;;;5059617;28;20456;-69
2024/02/03 11:26:00;;;;;;;9.40;2.70;;;10.50;99.90;;;;;;5065638;28;20445;-69
2024/02/03 11:28:32;;;;;;;7.30;1.60;;;10.20;99.90;;;;;;5067457;28;20554;-68
2024/02/03 11:31:00;;;;;;;8.20;2.03;;;10.00;99.90;;;;;;5066786;28;20806;-69
2024/02/03 11:33:30;;;;;;;7.43;1.77;;;9.90;99.90;;;;;;5066754;28;20455;-69
2024/02/03 11:35:59;;;;;;;7.00;1.23;;;9.90;99.90;;;;;;5067291;28;20449;-68
2024/02/03 11:38:27;;;;;;;6.60;1.00;;;9.90;99.90;;;;;;5066901;28;20446;-68
2024/02/03 11:40:57;;;;;;;6.30;0.83;;;9.70;99.90;;;;;;5063698;28;20488;-68
2024/02/03 11:43:29;;;;;;;6.40;0.80;;;9.70;99.90;;;;;;5065813;28;21061;-69
2024/02/03 11:46:02;;;;;;;7.47;1.03;;;9.80;99.90;;;;;;5066382;28;21612;-69
2024/02/03 11:48:31;;;;;;;6.10;0.70;;;9.90;99.90;;;;;;5068793;28;20448;-70
2024/02/03 11:51:00;;;;;;;5.80;0.60;;;9.90;99.90;;;;;;5068068;28;20516;-68
2024/02/03 11:53:28;;;;;;;6.40;0.90;;;9.70;99.90;;;;;;5067370;28;20510;-69
2024/02/03 11:55:56;;;;;;;6.27;0.90;;;9.60;99.90;;;;;;5067544;28;21185;-69
2024/02/03 11:58:24;;;;;;;5.80;0.50;;;9.70;99.90;;;;;;5067344;28;20451;-70
2024/02/03 12:01:02;;;;;;;6.10;0.73;;;9.70;99.90;;;;;;5066199;28;20489;-69
2024/02/03 12:03:31;;;;;;;5.93;0.50;;;9.90;99.90;;;;;;5061751;28;20442;-69
2024/02/03 12:06:00;;;;;;;5.97;0.60;;;10.10;99.90;;;;;;5065835;28;20953;-70
2024/02/03 12:08:28;;;;;;;5.90;0.50;;;9.90;99.90;;;;;;5065878;28;20447;-69
2024/02/03 12:10:56;;;;;;;5.83;0.47;;;9.90;99.90;;;;;;5065909;28;20539;-69
2024/02/03 12:13:24;;;;;;;6.10;0.60;;;10.10;99.90;;;;;;5064607;28;20466;-70
2024/02/03 12:15:52;;;;;;;5.77;0.50;;;10.10;99.90;;;;;;5066509;28;20455;-70
2024/02/03 12:18:20;;;;;;;6.17;0.57;;;10.30;99.90;;;;;;5066494;28;20450;-70
2024/02/03 12:20:50;;;;;;;5.90;0.50;;;10.30;99.90;;;;;;5065470;28;20477;-69
2024/02/03 12:23:18;;;;;;;5.90;0.50;;;10.20;99.90;;;;;;5064140;28;20445;-70
2024/02/03 12:25:48;;;;;;;5.80;0.50;;;10.10;99.90;;;;;;5064305;28;20449;-71
2024/02/03 12:28:17;;;;;;;5.77;0.50;;;10.10;99.90;;;;;;5066030;28;20450;-70
2024/02/03 12:30:55;;;;;;;5.70;0.40;;;10.20;99.90;;;;;;5065717;28;20458;-69
2024/02/03 12:33:24;;;;;;;7.47;0.47;;;10.20;99.90;;;;;;5064899;28;21003;-69
2024/02/03 12:35:53;;;;;;;5.67;0.40;;;10.10;99.90;;;;;;5065240;28;20479;-69
2024/02/03 12:38:22;;;;;;;5.87;0.47;;;10.10;99.90;;;;;;5065081;28;20461;-69
2024/02/03 12:40:50;;;;;;;5.80;0.47;;;10.20;99.90;;;;;;5064051;28;20497;-71
2024/02/03 12:43:18;;;;;;;5.67;0.40;;;10.30;99.90;;;;;;5064287;28;20984;-71
2024/02/03 12:45:46;;;;;;;5.70;0.40;;;10.20;99.90;;;;;;5064850;28;20449;-70
2024/02/03 12:48:14;;;;;;;5.73;0.43;;;10.20;99.90;;;;;;5064520;28;20452;-70
2024/02/03 12:50:43;;;;;;;5.90;0.50;;;10.10;99.90;;;;;;5064446;28;20914;-71
2024/02/03 12:53:13;;;;;;;7.70;0.70;;;10.20;99.90;;;;;;5064643;28;20480;-70
2024/02/03 12:55:41;;;;;;;5.73;0.40;;;10.10;99.90;;;;;;5064386;28;20927;-70
2024/02/03 12:58:08;;;;;;;5.60;0.40;;;10.10;99.90;;;;;;5064344;28;20449;-70
2024/02/03 13:00:36;;;;;;;6.00;0.47;;;10.20;99.90;;;;;;5063924;28;20517;-70